Terminal Aerodrome Forecast
Issued by NWS

Home | Current Version | Previous Version | Text Only | Print | Product List | Glossary On
Versions: 1 2 3 4 5 6 7 8 9 10 11 12 13 14 15 16 17 18 19
000
FTUS45 KTFX 030500 RRA
TAFLWT
TAF
KLWT 030541Z 0306/0406 36010KT 3SM -SN BKN012 BKN020
      TEMPO 0306/0308 1 1/2SM -SN
     FM030800 35008KT P6SM VCSH SCT020 BKN040
     FM031500 28008KT P6SM SCT050 BKN100
     FM032100 29010KT P6SM BKN120=

USA.gov is the U.S. government's official web portal to all federal, state and local government web resources and services.